This is the latest recevied weather packets stored in our database for station/object KF7BKV-1. If no packets are shown the sender has not sent any weather packets the latest 1 day(s).
| Time | Temp. | Humidity | Pressure | Rain* | Wind** | Luminosity | Snow |
|---|---|---|---|---|---|---|---|
| 1777980483 | 15° C | 43% | 1009.1 hPa | 0 mm | 4.47 m/s, 111° | - | - |
| 1777980423 | 15° C | 43% | 1009.1 hPa | 0 mm | 4.47 m/s, 111° | - | - |
| 1777980363 | 15° C | 43% | 1009.1 hPa | 0 mm | 4.47 m/s, 111° | - | - |
| 1777980303 | 15° C | 43% | 1009.1 hPa | 0 mm | 4.92 m/s, 131° | - | - |
| 1777980243 | 15° C | 43% | 1009.1 hPa | 0 mm | 4.92 m/s, 131° | - | - |
| 1777980183 | 15° C | 43% | 1009.1 hPa | 0 mm | 4.92 m/s, 131° | - | - |
| 1777980123 | 15.56° C | 43% | 1009.2 hPa | 0 mm | 2.24 m/s, 110° | - | - |
| 1777980063 | 15.56° C | 43% | 1009.2 hPa | 0 mm | 2.24 m/s, 110° | - | - |
| 1777980003 | 15.56° C | 43% | 1009.2 hPa | 0 mm | 2.24 m/s, 110° | - | - |
| 1777979943 | 15.56° C | 43% | 1009.2 hPa | 0 mm | 2.24 m/s, 110° | - | - |
| 1777979883 | 15.56° C | 43% | 1009.2 hPa | 0 mm | 2.24 m/s, 110° | - | - |
| 1777979823 | 15.56° C | 43% | 1009.2 hPa | 0 mm | 2.24 m/s, 110° | - | - |
| 1777979763 | 15.56° C | 43% | 1009.2 hPa | 0 mm | 2.24 m/s, 110° | - | - |
| 1777979703 | 15.56° C | 42% | 1009.1 hPa | 0 mm | 3.58 m/s, 101° | - | - |
| 1777979643 | 15.56° C | 42% | 1009.1 hPa | 0 mm | 3.58 m/s, 101° | - | - |
| 1777979583 | 15.56° C | 42% | 1009.1 hPa | 0 mm | 3.58 m/s, 101° | - | - |
| 1777979523 | 15.56° C | 42% | 1009.1 hPa | 0 mm | 3.58 m/s, 101° | - | - |
| 1777979463 | 15.56° C | 42% | 1009.1 hPa | 0 mm | 3.58 m/s, 101° | - | - |
| 1777979403 | 15.56° C | 42% | 1009.1 hPa | 0 mm | 4.02 m/s, 127° | - | - |
| 1777979343 | 15.56° C | 42% | 1009.1 hPa | 0 mm | 4.02 m/s, 127° | - | - |
| 1777979283 | 15.56° C | 42% | 1009.1 hPa | 0 mm | 4.02 m/s, 127° | - | - |
| 1777979223 | 15.56° C | 42% | 1009.1 hPa | 0 mm | 4.02 m/s, 127° | - | - |
| 1777979163 | 15.56° C | 42% | 1009.1 hPa | 0 mm | 4.02 m/s, 127° | - | - |
| 1777979103 | 15.56° C | 42% | 1008.9 hPa | 0 mm | 2.68 m/s, 93° | - | - |
| 1777979043 | 15.56° C | 42% | 1008.9 hPa | 0 mm | 2.68 m/s, 93° | - | - |
* Rain latest hour (hover to see other rain measurements)
** Current wind speed in m/s (hover to see current wind gust speed)